Time;durP1;ratioP1;P1;durP2;ratioP2;P2;SDS_P1;SDS_P2;PMS_P1;PMS_P2;Temp;Humidity;BMP_temperature;BMP_pressure;BME280_temperature;BME280_humidity;BME280_pressure;Samples;Min_cycle;Max_cycle;Signal;HPM_P1;HPM_P2
2023/11/25 00:00:43;;;;;;;6.10;1.67;;;1.40;1.00;;;;;;5073135;28;20326;-77
2023/11/25 00:03:10;;;;;;;7.17;1.40;;;1.40;1.00;;;;;;5075446;28;20203;-80
2023/11/25 00:05:38;;;;;;;6.30;1.30;;;1.40;1.00;;;;;;5072483;28;20265;-78
2023/11/25 00:08:05;;;;;;;5.90;1.47;;;1.40;1.00;;;;;;5074673;28;20226;-78
2023/11/25 00:10:32;;;;;;;3.77;1.47;;;1.30;1.00;;;;;;5069829;28;20211;-78
2023/11/25 00:12:59;;;;;;;6.73;1.50;;;1.30;1.00;;;;;;5069937;28;20232;-79
2023/11/25 00:15:26;;;;;;;3.30;1.13;;;1.40;1.00;;;;;;5073981;28;20198;-80
2023/11/25 00:17:53;;;;;;;4.37;1.67;;;1.30;1.00;;;;;;5069666;28;20226;-80
2023/11/25 00:20:20;;;;;;;7.50;1.57;;;1.40;1.00;;;;;;5072412;28;20202;-79
2023/11/25 00:22:48;;;;;;;7.60;1.40;;;1.30;1.00;;;;;;5067533;28;20211;-76
2023/11/25 00:25:18;;;;;;;4.20;1.50;;;1.30;1.00;;;;;;5071628;28;20214;-79
2023/11/25 00:27:46;;;;;;;5.20;1.53;;;1.30;1.00;;;;;;5067605;28;20242;-80
2023/11/25 00:30:14;;;;;;;5.63;1.30;;;1.20;1.00;;;;;;5074921;28;20209;-80
2023/11/25 00:32:41;;;;;;;6.47;1.87;;;1.30;99.90;;;;;;5070174;28;20203;-80
2023/11/25 00:35:09;;;;;;;4.43;1.40;;;1.20;99.90;;;;;;5072062;28;20202;-78
2023/11/25 00:37:36;;;;;;;3.40;1.10;;;1.30;99.90;;;;;;5065933;28;20223;-79
2023/11/25 00:40:09;;;;;;;7.53;1.57;;;1.30;99.90;;;;;;5071254;28;20216;-79
2023/11/25 00:42:36;;;;;;;4.17;1.60;;;1.30;99.90;;;;;;5073955;28;20203;-79
2023/11/25 00:45:03;;;;;;;4.80;1.50;;;1.20;99.90;;;;;;5080638;28;20215;-79
2023/11/25 00:47:30;;;;;;;7.67;1.77;;;1.20;99.90;;;;;;5078805;28;20222;-77
2023/11/25 00:49:57;;;;;;;4.37;1.53;;;1.20;99.90;;;;;;5075196;28;20666;-79
2023/11/25 00:52:24;;;;;;;3.27;1.83;;;1.20;99.90;;;;;;5078314;28;20217;-80
2023/11/25 00:54:51;;;;;;;3.83;1.43;;;1.20;99.90;;;;;;5078756;28;20198;-79
2023/11/25 00:57:19;;;;;;;4.17;1.23;;;1.30;99.90;;;;;;5073996;28;20229;-78
2023/11/25 00:59:46;;;;;;;4.23;1.17;;;1.20;99.90;;;;;;5077686;28;20716;-79
2023/11/25 01:02:13;;;;;;;4.37;1.57;;;1.20;99.90;;;;;;5077956;28;20178;-78
2023/11/25 01:04:40;;;;;;;4.53;1.40;;;1.20;99.90;;;;;;5074065;28;20186;-79
2023/11/25 01:07:07;;;;;;;7.17;1.90;;;1.20;99.90;;;;;;5076569;28;20206;-78
2023/11/25 01:09:34;;;;;;;3.23;1.47;;;1.30;99.90;;;;;;5071292;28;20203;-78
2023/11/25 01:12:02;;;;;;;6.60;1.50;;;1.20;99.90;;;;;;5074153;28;20205;-80
2023/11/25 01:14:32;;;;;;;8.43;1.63;;;1.20;99.90;;;;;;5070344;28;20203;-79
2023/11/25 01:17:00;;;;;;;4.93;1.50;;;1.20;99.90;;;;;;5070109;28;20765;-79
2023/11/25 01:19:27;;;;;;;6.77;1.37;;;1.10;99.90;;;;;;5074634;28;20226;-78
2023/11/25 01:21:54;;;;;;;9.90;1.83;;;1.10;99.90;;;;;;5073434;28;20659;-79
2023/11/25 01:24:22;;;;;;;6.20;1.60;;;1.20;99.90;;;;;;5069434;28;20285;-79
2023/11/25 01:26:49;;;;;;;4.23;1.57;;;1.20;99.90;;;;;;5068356;28;20206;-78
2023/11/25 01:29:17;;;;;;;4.63;1.33;;;1.20;99.90;;;;;;5070489;28;20240;-78
2023/11/25 01:31:45;;;;;;;6.03;1.60;;;1.10;99.90;;;;;;5066468;28;20213;-78
2023/11/25 01:34:12;;;;;;;4.43;1.40;;;1.10;99.90;;;;;;5069453;28;20206;-79
2023/11/25 01:36:39;;;;;;;4.03;1.40;;;1.10;99.90;;;;;;5070110;28;20210;-79
2023/11/25 01:39:06;;;;;;;7.47;2.07;;;1.10;99.90;;;;;;5074187;28;20480;-80
2023/11/25 01:41:33;;;;;;;10.20;1.70;;;1.10;99.90;;;;;;5071384;28;20290;-79
2023/11/25 01:44:00;;;;;;;6.47;1.73;;;1.10;99.90;;;;;;5072520;28;20667;-79
2023/11/25 01:46:37;;;;;;;8.40;1.70;;;1.10;99.90;;;;;;5072970;28;20271;-78
2023/11/25 01:49:06;;;;;;;6.03;1.33;;;1.00;99.90;;;;;;5075892;28;20308;-79
2023/11/25 01:51:33;;;;;;;6.80;1.73;;;1.00;1.00;;;;;;5078190;28;20206;-79
2023/11/25 01:54:01;;;;;;;3.60;1.40;;;1.00;1.00;;;;;;5079510;28;20654;-79
2023/11/25 01:56:29;;;;;;;4.73;1.67;;;1.00;1.00;;;;;;5076307;28;20206;-77
2023/11/25 01:58:57;;;;;;;14.27;2.13;;;1.00;1.00;;;;;;5076422;28;20214;-78
2023/11/25 02:01:26;;;;;;;7.10;1.60;;;1.00;1.00;;;;;;5073925;28;20203;-78
2023/11/25 02:03:53;;;;;;;7.83;1.60;;;1.00;1.00;;;;;;5077781;28;20208;-79
2023/11/25 02:06:23;;;;;;;7.70;1.90;;;1.00;99.90;;;;;;5075901;28;20666;-78
2023/11/25 02:08:50;;;;;;;7.60;1.50;;;1.10;99.90;;;;;;5073816;28;20230;-79
2023/11/25 02:11:17;;;;;;;5.47;1.37;;;1.10;99.90;;;;;;5069538;28;20293;-77
2023/11/25 02:13:45;;;;;;;6.73;1.73;;;1.00;99.90;;;;;;5071543;28;20214;-78
2023/11/25 02:16:13;;;;;;;5.43;1.30;;;1.00;99.90;;;;;;5071341;28;20671;-79
2023/11/25 02:18:39;;;;;;;7.90;1.70;;;1.10;99.90;;;;;;5071018;28;20760;-79
2023/11/25 02:21:10;;;;;;;7.57;1.67;;;1.20;99.90;;;;;;5070178;28;20213;-78
2023/11/25 02:23:38;;;;;;;7.73;1.50;;;1.30;99.90;;;;;;5067558;28;20199;-78
2023/11/25 02:26:05;;;;;;;4.60;1.30;;;1.30;99.90;;;;;;5070567;28;20202;-78
2023/11/25 02:28:33;;;;;;;5.13;1.40;;;1.30;99.90;;;;;;5070739;28;20245;-77
2023/11/25 02:31:01;;;;;;;8.80;1.40;;;1.30;99.90;;;;;;5071857;28;20209;-80
2023/11/25 02:33:34;;;;;;;4.23;1.33;;;1.30;99.90;;;;;;5075135;28;20201;-79
2023/11/25 02:36:01;;;;;;;8.33;1.90;;;1.30;99.90;;;;;;5071291;28;20214;-79
2023/11/25 02:38:27;;;;;;;7.60;1.47;;;1.30;27.10;;;;;;5068704;28;20214;-79
2023/11/25 02:40:56;;;;;;;6.80;1.20;;;1.30;14.40;;;;;;5072655;28;20186;-79
2023/11/25 02:43:23;;;;;;;3.20;1.10;;;1.30;41.80;;;;;;5069251;28;20213;-78
2023/11/25 02:45:50;;;;;;;8.67;2.20;;;1.10;99.90;;;;;;5070969;28;20203;-79
2023/11/25 02:48:17;;;;;;;4.77;1.43;;;1.10;99.90;;;;;;5068502;28;20226;-78
2023/11/25 02:50:44;;;;;;;4.77;1.10;;;1.00;99.90;;;;;;5066052;28;20222;-77
2023/11/25 02:53:10;;;;;;;5.83;1.20;;;1.10;99.90;;;;;;5069510;28;20225;-79
2023/11/25 02:55:37;;;;;;;2.53;1.23;;;1.20;99.90;;;;;;5078857;28;20270;-78
2023/11/25 02:58:05;;;;;;;2.47;1.10;;;1.20;99.90;;;;;;5076122;28;20228;-78
2023/11/25 03:00:36;;;;;;;6.30;1.23;;;1.20;99.90;;;;;;5077545;28;20292;-79
2023/11/25 03:03:09;;;;;;;6.43;1.23;;;1.30;99.90;;;;;;5079406;28;20194;-79
2023/11/25 03:05:37;;;;;;;8.23;1.07;;;1.30;99.90;;;;;;5077265;28;20206;-78
2023/11/25 03:08:04;;;;;;;7.87;1.57;;;1.40;99.90;;;;;;5077652;28;20256;-79
2023/11/25 03:10:31;;;;;;;7.50;1.63;;;1.40;99.90;;;;;;5081074;28;20697;-79
2023/11/25 03:12:59;;;;;;;8.90;1.77;;;1.50;99.90;;;;;;5079453;28;20658;-77
2023/11/25 03:15:27;;;;;;;8.40;1.50;;;1.50;99.90;;;;;;5082079;28;20205;-78
2023/11/25 03:17:54;;;;;;;7.93;1.83;;;1.60;99.90;;;;;;5078215;28;20219;-78
2023/11/25 03:20:21;;;;;;;7.10;2.27;;;1.70;99.90;;;;;;5078934;28;20213;-77
2023/11/25 03:22:48;;;;;;;8.23;1.27;;;1.70;67.30;;;;;;5074882;28;20290;-78
2023/11/25 03:25:15;;;;;;;8.70;1.40;;;1.80;10.50;;;;;;5080656;28;20190;-79
2023/11/25 03:27:42;;;;;;;7.57;1.93;;;1.90;1.00;;;;;;5076879;28;20285;-78
2023/11/25 03:30:11;;;;;;;3.03;1.53;;;1.90;1.00;;;;;;5080620;28;20226;-78
2023/11/25 03:32:39;;;;;;;5.80;1.43;;;1.90;1.00;;;;;;5076288;28;20202;-78
2023/11/25 03:35:07;;;;;;;4.90;1.37;;;1.80;54.20;;;;;;5075413;28;20204;-79
2023/11/25 03:37:34;;;;;;;6.37;1.80;;;1.80;95.50;;;;;;5071127;28;20222;-79
2023/11/25 03:40:01;;;;;;;6.87;1.30;;;1.80;99.70;;;;;;5078004;28;20203;-79
2023/11/25 03:42:27;;;;;;;8.30;1.63;;;1.80;33.40;;;;;;5075102;28;20214;-79
2023/11/25 03:44:54;;;;;;;6.83;1.90;;;1.70;99.90;;;;;;5077862;28;20195;-79
2023/11/25 03:47:21;;;;;;;6.77;1.63;;;1.80;99.90;;;;;;5076002;28;20220;-77
2023/11/25 03:49:49;;;;;;;7.93;2.27;;;1.80;99.90;;;;;;5077203;28;20284;-79
2023/11/25 03:52:16;;;;;;;7.50;1.67;;;1.80;99.90;;;;;;5075039;28;20285;-78
2023/11/25 03:54:43;;;;;;;7.97;1.90;;;1.80;99.90;;;;;;5068251;28;20662;-78
2023/11/25 03:57:10;;;;;;;4.37;1.70;;;1.80;99.90;;;;;;5073904;28;20202;-77
2023/11/25 03:59:37;;;;;;;9.30;2.30;;;1.80;99.90;;;;;;5076131;28;20209;-78
2023/11/25 04:02:04;;;;;;;4.60;1.37;;;1.90;1.00;;;;;;5077624;28;20217;-77
2023/11/25 04:04:31;;;;;;;8.27;1.80;;;1.90;1.00;;;;;;5077952;28;20230;-78
2023/11/25 04:07:00;;;;;;;10.00;1.93;;;2.00;1.00;;;;;;5079895;28;20204;-79
2023/11/25 04:09:27;;;;;;;9.33;2.17;;;2.00;1.00;;;;;;5081297;28;20218;-78
2023/11/25 04:11:54;;;;;;;10.37;2.33;;;2.00;1.00;;;;;;5079464;28;20211;-78
2023/11/25 04:14:21;;;;;;;9.97;2.20;;;2.10;1.00;;;;;;5079377;28;20198;-77
2023/11/25 04:16:48;;;;;;;10.67;3.00;;;2.20;1.00;;;;;;5074589;28;20199;-77
2023/11/25 04:19:16;;;;;;;5.67;2.03;;;2.10;1.00;;;;;;5075766;28;20219;-79
2023/11/25 04:21:45;;;;;;;7.40;2.00;;;2.20;1.00;;;;;;5075781;28;20235;-78
2023/11/25 04:24:19;;;;;;;7.93;1.70;;;2.20;1.00;;;;;;5070977;28;20230;-79
2023/11/25 04:26:46;;;;;;;6.63;2.20;;;2.20;1.00;;;;;;5073023;28;20284;-78
2023/11/25 04:29:13;;;;;;;6.37;1.77;;;2.10;1.00;;;;;;5073277;28;20237;-78
2023/11/25 04:31:40;;;;;;;8.67;1.70;;;2.10;1.00;;;;;;5075542;28;20218;-79
2023/11/25 04:34:07;;;;;;;13.20;2.00;;;2.10;1.00;;;;;;5070534;28;20202;-79
2023/11/25 04:36:35;;;;;;;5.27;1.47;;;2.10;1.00;;;;;;5071872;28;20202;-78
2023/11/25 04:39:01;;;;;;;8.47;1.80;;;2.10;1.00;;;;;;5066729;28;20215;-77
2023/11/25 04:41:30;;;;;;;5.47;1.57;;;2.20;1.00;;;;;;5073246;28;20600;-79
2023/11/25 04:43:57;;;;;;;5.27;2.17;;;2.30;1.00;;;;;;5073992;28;20210;-77
2023/11/25 04:46:24;;;;;;;4.90;1.63;;;2.30;1.00;;;;;;5074996;28;20864;-79
2023/11/25 04:48:51;;;;;;;7.23;1.90;;;2.30;1.00;;;;;;5072644;28;20604;-78
2023/11/25 04:51:23;;;;;;;9.27;1.90;;;2.30;1.00;;;;;;5070340;28;20685;-77
2023/11/25 04:53:50;;;;;;;11.50;2.00;;;2.30;1.00;;;;;;5071340;28;20198;-79
2023/11/25 04:56:17;;;;;;;7.27;1.77;;;2.30;1.00;;;;;;5073486;28;20186;-77
2023/11/25 04:58:45;;;;;;;11.20;2.27;;;2.30;1.00;;;;;;5062246;28;20229;-79
2023/11/25 05:01:13;;;;;;;6.27;2.30;;;2.30;1.00;;;;;;5071644;28;20213;-77
2023/11/25 05:03:40;;;;;;;9.23;1.80;;;2.30;1.00;;;;;;5063002;28;20209;-77
2023/11/25 05:06:10;;;;;;;8.33;1.80;;;2.20;1.00;;;;;;5076144;28;20588;-79
2023/11/25 05:08:37;;;;;;;11.97;3.27;;;2.30;1.00;;;;;;5075047;28;20238;-81
2023/11/25 05:11:05;;;;;;;6.47;2.23;;;2.20;1.00;;;;;;5073226;28;20614;-80
2023/11/25 05:13:32;;;;;;;7.30;2.60;;;2.20;3.70;;;;;;5071357;28;20256;-79
2023/11/25 05:16:00;;;;;;;7.43;3.20;;;2.20;77.60;;;;;;5072049;28;20203;-79
2023/11/25 05:18:27;;;;;;;9.57;3.20;;;2.20;99.90;;;;;;5076024;28;20320;-79
2023/11/25 05:20:53;;;;;;;10.30;2.80;;;2.20;99.90;;;;;;5073222;28;20654;-77
2023/11/25 05:23:20;;;;;;;7.10;3.40;;;2.20;1.00;;;;;;5071676;28;20653;-76
2023/11/25 05:25:47;;;;;;;7.57;3.10;;;2.20;1.00;;;;;;5071584;28;20210;-76
2023/11/25 05:28:14;;;;;;;11.43;3.90;;;2.20;1.00;;;;;;5070059;28;20225;-78
2023/11/25 05:30:42;;;;;;;6.20;3.70;;;2.30;1.00;;;;;;5068508;28;20226;-77
2023/11/25 05:33:10;;;;;;;9.77;4.00;;;2.20;1.00;;;;;;5071280;28;20196;-77
2023/11/25 05:35:37;;;;;;;10.40;4.23;;;2.30;1.00;;;;;;5071584;28;20206;-76
2023/11/25 05:38:04;;;;;;;9.50;4.33;;;2.30;1.00;;;;;;5065952;28;20241;-76
2023/11/25 05:40:31;;;;;;;14.70;4.70;;;2.40;1.00;;;;;;5069046;28;20240;-77
2023/11/25 05:43:00;;;;;;;10.90;4.77;;;2.30;1.00;;;;;;5072045;28;20202;-78
2023/11/25 05:45:27;;;;;;;5.97;4.03;;;2.30;1.00;;;;;;5070736;28;20735;-78
2023/11/25 05:47:54;;;;;;;12.23;4.53;;;2.40;1.00;;;;;;5073851;28;20233;-75
2023/11/25 05:50:22;;;;;;;9.67;4.13;;;2.40;1.00;;;;;;5066589;28;20233;-78
2023/11/25 05:52:50;;;;;;;10.00;4.57;;;2.40;1.00;;;;;;5070550;28;20202;-78
2023/11/25 05:55:19;;;;;;;11.83;4.17;;;2.50;1.00;;;;;;5067754;28;20234;-80
2023/11/25 05:57:46;;;;;;;11.40;4.30;;;2.50;1.00;;;;;;5067961;28;20312;-79
2023/11/25 06:00:14;;;;;;;9.23;4.20;;;2.50;1.00;;;;;;5068858;28;20206;-79
2023/11/25 06:02:41;;;;;;;9.07;4.53;;;2.50;1.00;;;;;;5071702;28;20214;-80
2023/11/25 06:05:09;;;;;;;9.57;4.17;;;2.50;1.00;;;;;;5074128;28;20201;-81
2023/11/25 06:07:38;;;;;;;11.13;4.70;;;2.60;1.00;;;;;;5064224;28;20595;-80
2023/11/25 06:10:05;;;;;;;9.93;4.43;;;2.60;1.00;;;;;;5070460;28;20241;-79
2023/11/25 06:12:33;;;;;;;11.73;3.97;;;2.60;1.00;;;;;;5067836;28;20582;-79
2023/11/25 06:15:00;;;;;;;13.27;4.17;;;2.70;1.00;;;;;;5069713;28;20210;-80
2023/11/25 06:17:27;;;;;;;11.67;4.63;;;2.50;1.00;;;;;;5062961;28;20286;-78
2023/11/25 06:19:54;;;;;;;8.60;3.90;;;2.60;8.10;;;;;;5069871;28;20289;-80
2023/11/25 06:22:21;;;;;;;9.77;3.97;;;2.60;28.20;;;;;;5075803;28;20209;-77
2023/11/25 06:24:49;;;;;;;8.50;3.57;;;2.60;90.30;;;;;;5074445;28;20242;-78
2023/11/25 06:27:19;;;;;;;9.13;4.27;;;2.60;99.90;;;;;;5074464;28;20245;-79
2023/11/25 06:29:47;;;;;;;11.20;3.67;;;2.60;99.90;;;;;;5071717;28;20233;-78
2023/11/25 06:32:14;;;;;;;9.97;3.20;;;2.60;98.90;;;;;;5074862;28;20330;-78
2023/11/25 06:34:41;;;;;;;10.20;2.93;;;2.70;1.00;;;;;;5070838;28;20207;-77
2023/11/25 06:37:07;;;;;;;7.17;2.70;;;2.80;1.00;;;;;;5073104;28;20644;-79
2023/11/25 06:39:35;;;;;;;5.97;2.70;;;2.80;1.00;;;;;;5074955;28;20228;-78
2023/11/25 06:42:07;;;;;;;6.53;2.90;;;2.90;1.00;;;;;;5073699;28;20290;-79
2023/11/25 06:44:34;;;;;;;8.37;2.83;;;2.90;1.00;;;;;;5073444;28;20674;-78
2023/11/25 06:47:01;;;;;;;6.07;2.30;;;2.90;1.00;;;;;;5075566;28;20264;-80
2023/11/25 06:49:30;;;;;;;9.90;2.70;;;2.90;1.00;;;;;;5070552;28;20919;-79
2023/11/25 06:51:57;;;;;;;10.37;3.30;;;2.90;1.00;;;;;;5072470;28;20656;-79
2023/11/25 06:54:24;;;;;;;12.70;4.70;;;2.90;1.00;;;;;;5071661;28;20225;-80
2023/11/25 06:56:51;;;;;;;9.07;3.17;;;2.90;1.00;;;;;;5070828;28;20206;-78
2023/11/25 06:59:20;;;;;;;7.90;3.57;;;2.80;1.00;;;;;;5069186;28;20229;-77
2023/11/25 07:01:47;;;;;;;6.50;3.10;;;2.80;1.00;;;;;;5067721;28;20206;-78
2023/11/25 07:04:14;;;;;;;6.23;3.83;;;2.80;1.00;;;;;;5066594;28;20285;-79
2023/11/25 07:06:41;;;;;;;8.93;3.97;;;2.80;41.20;;;;;;5063443;28;20238;-79
2023/11/25 07:09:09;;;;;;;10.87;4.57;;;2.80;68.00;;;;;;5064155;28;20222;-79
2023/11/25 07:11:37;;;;;;;11.53;4.10;;;2.90;64.90;;;;;;5064690;28;20224;-78
2023/11/25 07:14:05;;;;;;;8.13;3.70;;;2.90;99.90;;;;;;5064757;28;20195;-78
2023/11/25 07:16:33;;;;;;;8.00;3.53;;;2.80;99.90;;;;;;5066700;28;20285;-78
2023/11/25 07:19:01;;;;;;;11.37;3.33;;;2.90;1.00;;;;;;5068231;28;20223;-79
2023/11/25 07:21:29;;;;;;;11.97;3.80;;;2.90;1.00;;;;;;5069244;28;20209;-80
2023/11/25 07:23:56;;;;;;;9.77;3.73;;;2.90;1.00;;;;;;5067307;28;20202;-79
2023/11/25 07:26:23;;;;;;;16.00;4.07;;;2.90;1.00;;;;;;5069404;28;20599;-80
2023/11/25 07:28:50;;;;;;;11.73;3.40;;;2.90;31.60;;;;;;5067691;28;20230;-79
2023/11/25 07:31:17;;;;;;;8.53;3.50;;;3.00;99.90;;;;;;5066192;28;20262;-79
2023/11/25 07:33:45;;;;;;;12.47;4.03;;;3.00;1.00;;;;;;5067565;28;20210;-78
2023/11/25 07:36:13;;;;;;;17.00;5.50;;;3.00;87.80;;;;;;5067913;28;20211;-78
2023/11/25 07:38:39;;;;;;;16.90;6.30;;;3.00;99.90;;;;;;5071992;28;20635;-79
2023/11/25 07:41:06;;;;;;;21.03;6.73;;;3.10;99.90;;;;;;5066374;28;20205;-81
2023/11/25 07:43:33;;;;;;;20.23;7.80;;;3.10;1.00;;;;;;5069789;28;20209;-81
2023/11/25 07:46:00;;;;;;;9.43;5.47;;;3.10;99.90;;;;;;5065480;28;20253;-81
2023/11/25 07:48:27;;;;;;;11.13;4.00;;;3.10;18.30;;;;;;5069762;28;20240;-80
2023/11/25 07:50:55;;;;;;;11.47;4.73;;;3.10;19.30;;;;;;5071715;28;20773;-81
2023/11/25 07:53:22;;;;;;;12.17;5.10;;;3.00;99.90;;;;;;5069730;28;20650;-81
2023/11/25 07:55:50;;;;;;;12.90;3.90;;;3.00;99.90;;;;;;5070663;28;20248;-81
2023/11/25 07:58:18;;;;;;;10.43;4.20;;;3.00;1.00;;;;;;5070177;28;20219;-78
2023/11/25 08:00:45;;;;;;;12.20;4.47;;;3.00;1.00;;;;;;5072016;28;20198;-80
2023/11/25 08:03:12;;;;;;;10.90;4.80;;;3.00;1.00;;;;;;5067083;28;20210;-79
2023/11/25 08:05:39;;;;;;;15.23;4.33;;;3.00;2.90;;;;;;5071819;28;20215;-79
2023/11/25 08:08:08;;;;;;;8.30;4.40;;;2.90;99.90;;;;;;5066453;28;20218;-78
2023/11/25 08:10:35;;;;;;;11.13;4.70;;;2.90;1.00;;;;;;5069578;28;20262;-81
2023/11/25 08:13:02;;;;;;;11.83;4.50;;;2.90;1.00;;;;;;5076141;28;20301;-81
2023/11/25 08:15:29;;;;;;;10.80;3.87;;;2.90;1.00;;;;;;5071839;28;20199;-82
2023/11/25 08:17:56;;;;;;;10.10;3.63;;;2.90;1.00;;;;;;5065422;28;20276;-81
2023/11/25 08:20:24;;;;;;;12.67;4.80;;;2.80;1.00;;;;;;5072912;28;20213;-81
2023/11/25 08:22:51;;;;;;;9.67;4.20;;;2.90;1.00;;;;;;5071729;28;20202;-80
2023/11/25 08:25:19;;;;;;;11.53;3.87;;;2.80;1.00;;;;;;5076129;28;20205;-79
2023/11/25 08:27:46;;;;;;;6.00;3.20;;;2.80;1.00;;;;;;5076376;28;20226;-78
2023/11/25 08:30:13;;;;;;;7.00;3.70;;;2.70;1.00;;;;;;5082180;28;20780;-79
2023/11/25 08:32:40;;;;;;;7.83;3.43;;;2.80;1.00;;;;;;5070714;28;20199;-80
2023/11/25 08:35:08;;;;;;;3.83;2.13;;;2.80;1.00;;;;;;5077008;28;20202;-77
2023/11/25 08:37:36;;;;;;;4.37;2.20;;;2.80;1.00;;;;;;5077712;28;20218;-81
2023/11/25 08:40:04;;;;;;;4.00;2.20;;;2.80;1.00;;;;;;5073841;28;20214;-77
2023/11/25 08:42:32;;;;;;;3.10;2.10;;;2.90;1.00;;;;;;5074861;28;20206;-78
2023/11/25 08:45:01;;;;;;;5.60;2.23;;;2.90;1.00;;;;;;5076083;28;20217;-77
2023/11/25 08:47:28;;;;;;;2.80;2.30;;;2.90;1.00;;;;;;5073409;28;20227;-80
2023/11/25 08:49:56;;;;;;;8.03;2.70;;;2.90;1.00;;;;;;5070909;28;20234;-82
2023/11/25 08:52:24;;;;;;;3.27;2.53;;;3.00;1.00;;;;;;5068844;28;20207;-78
2023/11/25 08:54:52;;;;;;;5.40;2.03;;;3.10;1.00;;;;;;5073162;28;20198;-78
2023/11/25 08:57:20;;;;;;;4.17;2.50;;;3.10;1.00;;;;;;5065804;28;20286;-77
2023/11/25 08:59:48;;;;;;;3.93;2.50;;;3.10;1.00;;;;;;5071863;28;20202;-81
2023/11/25 09:02:22;;;;;;;5.20;2.30;;;3.20;1.00;;;;;;5070058;28;20424;-80
2023/11/25 09:04:49;;;;;;;3.83;2.10;;;3.30;1.00;;;;;;5071507;28;20202;-80
2023/11/25 09:07:17;;;;;;;4.97;2.40;;;3.30;1.00;;;;;;5070047;28;20209;-80
2023/11/25 09:09:49;;;;;;;4.60;2.80;;;3.40;1.00;;;;;;5071193;28;20697;-82
2023/11/25 09:12:16;;;;;;;7.77;3.20;;;3.50;1.00;;;;;;5067331;28;20289;-81
2023/11/25 09:14:44;;;;;;;7.37;2.70;;;3.60;99.90;;;;;;5071307;28;20220;-80
2023/11/25 09:17:15;;;;;;;8.60;2.63;;;3.70;99.90;;;;;;5067944;28;20198;-80
2023/11/25 09:19:44;;;;;;;4.73;2.57;;;3.70;99.90;;;;;;5067760;28;20214;-79
2023/11/25 09:22:12;;;;;;;10.33;3.73;;;3.70;1.00;;;;;;5063568;28;20666;-79
2023/11/25 09:24:40;;;;;;;9.03;1.93;;;3.80;1.00;;;;;;5062325;28;20207;-80
2023/11/25 09:27:07;;;;;;;2.87;1.33;;;3.90;1.00;;;;;;5061514;28;20214;-80
2023/11/25 09:29:35;;;;;;;3.30;1.67;;;4.10;99.90;;;;;;5064572;28;20724;-81
2023/11/25 09:32:02;;;;;;;1.83;0.80;;;4.20;1.00;;;;;;5073258;28;20230;-82
2023/11/25 09:34:30;;;;;;;4.60;0.90;;;4.30;99.90;;;;;;5074143;28;20194;-79
2023/11/25 09:36:57;;;;;;;7.93;1.40;;;4.20;93.50;;;;;;5073688;28;20650;-80
2023/11/25 09:39:24;;;;;;;3.60;1.17;;;4.20;3.10;;;;;;5072601;28;20214;-81
2023/11/25 09:41:51;;;;;;;2.77;1.10;;;4.20;99.90;;;;;;5071798;28;20194;-80
2023/11/25 09:44:20;;;;;;;1.97;0.80;;;4.20;1.00;;;;;;5072138;28;20217;-79
2023/11/25 09:46:48;;;;;;;5.87;1.17;;;4.30;18.10;;;;;;5073183;28;20546;-80
2023/11/25 09:49:16;;;;;;;1.07;0.97;;;4.30;99.90;;;;;;5072089;28;20228;-80
2023/11/25 09:51:47;;;;;;;1.60;0.77;;;4.30;99.90;;;;;;5073003;28;20250;-83
2023/11/25 09:54:20;;;;;;;1.40;1.23;;;4.30;1.00;;;;;;5071247;28;20211;-79
2023/11/25 09:56:50;;;;;;;3.73;1.73;;;4.30;1.00;;;;;;5070974;28;20202;-80
2023/11/25 09:59:18;;;;;;;1.90;0.90;;;4.40;1.00;;;;;;5069776;28;20689;-82
2023/11/25 10:01:45;;;;;;;1.70;0.50;;;4.40;1.00;;;;;;5072112;28;20202;-81
2023/11/25 10:04:14;;;;;;;0.20;0.20;;;4.40;99.90;;;;;;5068746;28;20202;-81
2023/11/25 10:06:42;;;;;;;1.53;0.90;;;4.40;99.90;;;;;;5072790;28;20206;-79
2023/11/25 10:09:11;;;;;;;0.70;0.40;;;4.40;99.90;;;;;;5070342;28;20222;-81
2023/11/25 10:11:42;;;;;;;1.63;0.80;;;4.50;99.90;;;;;;5063563;28;20227;-78
2023/11/25 10:14:13;;;;;;;2.27;0.77;;;4.50;99.90;;;;;;5066847;28;20324;-80
2023/11/25 10:16:43;;;;;;;1.47;0.60;;;4.50;99.90;;;;;;5061565;28;20563;-76
2023/11/25 10:19:19;;;;;;;0.53;0.30;;;4.50;39.60;;;;;;5061991;28;20264;-77
2023/11/25 10:21:46;;;;;;;1.70;1.40;;;4.40;1.00;;;;;;5065472;28;20216;-79
2023/11/25 10:24:15;;;;;;;2.70;0.90;;;4.50;1.00;;;;;;5068944;28;20257;-81
2023/11/25 10:26:43;;;;;;;3.43;0.60;;;4.50;1.00;;;;;;5067583;28;20290;-79
2023/11/25 10:29:11;;;;;;;2.30;0.67;;;4.50;1.00;;;;;;5067518;28;20332;-76
2023/11/25 10:31:41;;;;;;;1.43;0.80;;;4.50;1.00;;;;;;5067196;28;20241;-77
2023/11/25 10:34:11;;;;;;;0.80;0.77;;;4.50;1.00;;;;;;5064148;28;20206;-77
2023/11/25 10:36:39;;;;;;;1.83;0.77;;;4.50;1.00;;;;;;5077840;28;20216;-78
2023/11/25 10:39:08;;;;;;;2.63;0.73;;;4.60;1.00;;;;;;5073597;28;20283;-78
2023/11/25 10:41:37;;;;;;;1.37;0.90;;;4.60;1.00;;;;;;5072982;28;20209;-78
2023/11/25 10:44:07;;;;;;;1.10;0.83;;;4.60;1.00;;;;;;5074875;28;20590;-79
2023/11/25 10:46:40;;;;;;;2.23;1.10;;;4.60;1.00;;;;;;5077088;28;20210;-82
2023/11/25 10:49:08;;;;;;;1.70;0.77;;;4.60;1.00;;;;;;5077277;28;20222;-81
2023/11/25 10:51:37;;;;;;;1.97;1.00;;;4.60;1.00;;;;;;5076289;28;20249;-80
2023/11/25 10:54:04;;;;;;;2.03;1.20;;;4.60;1.00;;;;;;5076694;28;20202;-81
2023/11/25 10:56:35;;;;;;;4.13;1.70;;;4.60;1.00;;;;;;5074532;28;20591;-78
2023/11/25 10:59:05;;;;;;;3.73;1.13;;;4.60;1.00;;;;;;5072716;28;20222;-82
2023/11/25 11:01:36;;;;;;;1.27;1.00;;;4.60;1.00;;;;;;5070924;28;20203;-75
2023/11/25 11:04:09;;;;;;;3.77;1.47;;;4.60;1.00;;;;;;5072520;28;20208;-82
2023/11/25 11:06:48;;;;;;;2.77;1.13;;;4.70;1.00;;;;;;5069218;28;20267;-79
2023/11/25 11:09:20;;;;;;;4.67;1.40;;;4.80;1.00;;;;;;5069962;28;20232;-80
2023/11/25 11:11:53;;;;;;;5.00;1.50;;;4.90;1.00;;;;;;5070844;28;20219;-82
2023/11/25 11:14:24;;;;;;;4.07;1.60;;;4.90;1.00;;;;;;5071557;28;20321;-80
2023/11/25 11:17:03;;;;;;;4.90;1.70;;;5.00;1.00;;;;;;5074576;28;20228;-80
2023/11/25 11:19:36;;;;;;;5.30;2.27;;;4.90;1.00;;;;;;5067759;28;20764;-80
2023/11/25 11:22:06;;;;;;;3.97;1.30;;;4.90;1.00;;;;;;5068301;28;20813;-80
2023/11/25 11:24:53;;;;;;;4.37;1.87;;;5.00;1.00;;;;;;5062989;28;20227;-79
2023/11/25 11:27:28;;;;;;;5.27;2.10;;;4.90;99.90;;;;;;5063075;28;20318;-80
2023/11/25 11:30:03;;;;;;;3.63;1.60;;;4.90;99.90;;;;;;5069278;28;20264;-79
2023/11/25 11:32:35;;;;;;;3.07;1.53;;;5.00;99.90;;;;;;5073351;28;20228;-81
2023/11/25 11:35:02;;;;;;;3.03;1.13;;;5.00;99.90;;;;;;5067643;28;20215;-79
2023/11/25 11:37:37;;;;;;;5.40;1.63;;;5.10;99.90;;;;;;5078317;28;20222;-80
2023/11/25 11:40:06;;;;;;;5.27;1.47;;;5.10;99.90;;;;;;5066262;28;20221;-79
2023/11/25 11:42:34;;;;;;;5.10;1.50;;;5.10;99.90;;;;;;5071512;28;20206;-81
2023/11/25 11:45:18;;;;;;;3.03;1.13;;;5.10;99.90;;;;;;5079456;28;20202;-80
2023/11/25 11:47:46;;;;;;;7.50;1.93;;;5.10;99.90;;;;;;5075425;28;20230;-81
2023/11/25 11:50:17;;;;;;;3.83;1.77;;;5.10;99.90;;;;;;5076099;28;20615;-80
2023/11/25 11:52:49;;;;;;;2.40;1.70;;;5.20;99.90;;;;;;5075814;28;20317;-81
2023/11/25 11:55:38;;;;;;;7.47;1.33;;;5.20;99.90;;;;;;5077244;28;20209;-82
2023/11/25 11:58:10;;;;;;;2.60;1.50;;;5.20;99.90;;;;;;5073562;28;20226;-78
2023/11/25 12:00:40;;;;;;;5.87;1.97;;;5.20;99.90;;;;;;5077613;28;20222;-80
2023/11/25 12:03:07;;;;;;;5.77;1.70;;;5.30;99.90;;;;;;5076657;28;20708;-83
2023/11/25 12:05:34;;;;;;;6.27;4.27;;;5.20;99.90;;;;;;5075848;28;20211;-81
2023/11/25 12:08:02;;;;;;;3.97;1.47;;;5.20;99.90;;;;;;5075251;28;20222;-80
2023/11/25 12:10:29;;;;;;;3.47;1.50;;;5.20;82.40;;;;;;5074143;28;20343;-79
2023/11/25 12:12:55;;;;;;;7.03;2.27;;;5.20;70.90;;;;;;5072142;28;20701;-79
2023/11/25 12:15:22;;;;;;;3.73;2.27;;;5.20;1.00;;;;;;5071666;28;20210;-79
2023/11/25 12:17:53;;;;;;;4.43;2.10;;;5.30;1.00;;;;;;5069879;28;20229;-80
2023/11/25 12:20:21;;;;;;;4.57;1.90;;;5.30;1.00;;;;;;5070539;28;20697;-80
2023/11/25 12:22:48;;;;;;;5.53;1.50;;;5.40;1.00;;;;;;5069575;28;20262;-78
2023/11/25 12:25:16;;;;;;;7.77;2.00;;;5.40;1.00;;;;;;5069854;28;20210;-78
2023/11/25 12:27:50;;;;;;;4.30;2.13;;;5.40;1.00;;;;;;5067136;28;20654;-80
2023/11/25 12:30:17;;;;;;;4.60;1.53;;;5.50;1.00;;;;;;5070611;28;20213;-79
2023/11/25 12:32:44;;;;;;;4.87;1.80;;;5.50;1.00;;;;;;5072466;28;20573;-81
2023/11/25 12:35:13;;;;;;;4.50;1.63;;;5.50;1.00;;;;;;5073403;28;20221;-80
2023/11/25 12:37:43;;;;;;;5.90;2.03;;;5.50;1.00;;;;;;5067101;28;20262;-78
2023/11/25 12:40:18;;;;;;;6.97;2.17;;;5.40;1.00;;;;;;5070581;28;20210;-79
2023/11/25 12:42:46;;;;;;;3.40;2.10;;;5.50;1.00;;;;;;5074156;28;20204;-78
2023/11/25 12:45:27;;;;;;;4.33;2.10;;;5.40;1.00;;;;;;5065411;28;20206;-79
2023/11/25 12:48:02;;;;;;;6.63;2.50;;;5.40;1.00;;;;;;5072979;28;20228;-81
2023/11/25 12:50:31;;;;;;;5.77;4.00;;;5.40;1.00;;;;;;5071741;28;20206;-79
2023/11/25 12:53:08;;;;;;;4.80;2.53;;;5.50;1.00;;;;;;5074922;28;20333;-80
2023/11/25 12:55:37;;;;;;;7.40;3.10;;;5.40;1.00;;;;;;5075546;28;20216;-79
2023/11/25 12:58:10;;;;;;;4.33;2.03;;;5.40;1.00;;;;;;5078636;28;20245;-81
2023/11/25 13:00:38;;;;;;;6.10;2.43;;;5.40;1.00;;;;;;5079592;28;20203;-81
2023/11/25 13:03:07;;;;;;;6.10;2.20;;;5.40;1.00;;;;;;5079076;28;20262;-80
2023/11/25 13:05:35;;;;;;;7.10;2.13;;;5.40;1.00;;;;;;5076937;28;20707;-79